sensor_id;sensor_type;location;lat;lon;timestamp;P1;durP1;ratioP1;P2;durP2;ratioP2
60076;SDS011;45950;45.208;20.374;2022-09-27T00:05:17;14.63;;;10.23;;
60076;SDS011;45950;45.208;20.374;2022-09-27T00:07:43;18.75;;;13.65;;
60076;SDS011;45950;45.208;20.374;2022-09-27T00:10:11;15.75;;;12.35;;
60076;SDS011;45950;45.208;20.374;2022-09-27T00:15:55;32.10;;;11.68;;
60076;SDS011;45950;45.208;20.374;2022-09-27T00:18:22;11.82;;;10.13;;
60076;SDS011;45950;45.208;20.374;2022-09-27T00:23:43;18.97;;;9.43;;
60076;SDS011;45950;45.208;20.374;2022-09-27T00:26:10;13.55;;;9.77;;
60076;SDS011;45950;45.208;20.374;2022-09-27T00:28:38;15.57;;;9.48;;
60076;SDS011;45950;45.208;20.374;2022-09-27T00:31:10;15.00;;;9.77;;
60076;SDS011;45950;45.208;20.374;2022-09-27T00:33:40;16.55;;;9.13;;
60076;SDS011;45950;45.208;20.374;2022-09-27T00:36:06;19.48;;;9.93;;
60076;SDS011;45950;45.208;20.374;2022-09-27T00:38:33;24.65;;;11.02;;
60076;SDS011;45950;45.208;20.374;2022-09-27T00:41:00;11.07;;;9.25;;
60076;SDS011;45950;45.208;20.374;2022-09-27T00:43:33;18.15;;;11.70;;
60076;SDS011;45950;45.208;20.374;2022-09-27T00:46:09;14.07;;;10.23;;
60076;SDS011;45950;45.208;20.374;2022-09-27T00:48:37;20.02;;;10.85;;
60076;SDS011;45950;45.208;20.374;2022-09-27T00:51:04;16.05;;;9.75;;
60076;SDS011;45950;45.208;20.374;2022-09-27T00:53:34;13.80;;;9.88;;
60076;SDS011;45950;45.208;20.374;2022-09-27T00:56:04;19.13;;;11.32;;
60076;SDS011;45950;45.208;20.374;2022-09-27T00:58:34;14.63;;;10.88;;
60076;SDS011;45950;45.208;20.374;2022-09-27T01:01:03;15.73;;;10.93;;
60076;SDS011;45950;45.208;20.374;2022-09-27T01:03:35;22.60;;;13.60;;
60076;SDS011;45950;45.208;20.374;2022-09-27T01:06:02;21.20;;;13.27;;
60076;SDS011;45950;45.208;20.374;2022-09-27T01:08:30;16.02;;;11.73;;
60076;SDS011;45950;45.208;20.374;2022-09-27T01:11:06;18.77;;;12.68;;
60076;SDS011;45950;45.208;20.374;2022-09-27T01:13:37;20.25;;;14.23;;
60076;SDS011;45950;45.208;20.374;2022-09-27T01:16:07;21.40;;;13.70;;
60076;SDS011;45950;45.208;20.374;2022-09-27T01:18:40;19.40;;;13.70;;
60076;SDS011;45950;45.208;20.374;2022-09-27T01:21:27;18.10;;;13.20;;
60076;SDS011;45950;45.208;20.374;2022-09-27T01:26:49;17.00;;;13.15;;
60076;SDS011;45950;45.208;20.374;2022-09-27T01:29:24;16.98;;;12.32;;
60076;SDS011;45950;45.208;20.374;2022-09-27T01:34:42;16.27;;;12.23;;
60076;SDS011;45950;45.208;20.374;2022-09-27T01:37:12;15.90;;;12.57;;
60076;SDS011;45950;45.208;20.374;2022-09-27T01:39:44;18.08;;;13.88;;
60076;SDS011;45950;45.208;20.374;2022-09-27T01:42:13;18.00;;;15.05;;
60076;SDS011;45950;45.208;20.374;2022-09-27T01:44:46;18.95;;;13.98;;
60076;SDS011;45950;45.208;20.374;2022-09-27T01:47:16;26.73;;;16.50;;
60076;SDS011;45950;45.208;20.374;2022-09-27T01:49:46;25.23;;;14.90;;
60076;SDS011;45950;45.208;20.374;2022-09-27T01:52:14;20.17;;;15.43;;
60076;SDS011;45950;45.208;20.374;2022-09-27T01:54:42;18.90;;;14.48;;
60076;SDS011;45950;45.208;20.374;2022-09-27T02:00:04;17.73;;;12.38;;
60076;SDS011;45950;45.208;20.374;2022-09-27T02:02:32;35.70;;;21.40;;
60076;SDS011;45950;45.208;20.374;2022-09-27T02:07:56;29.05;;;18.95;;
60076;SDS011;45950;45.208;20.374;2022-09-27T02:10:24;22.13;;;15.13;;
60076;SDS011;45950;45.208;20.374;2022-09-27T02:12:54;63.03;;;21.38;;
60076;SDS011;45950;45.208;20.374;2022-09-27T02:15:22;56.38;;;19.83;;
60076;SDS011;45950;45.208;20.374;2022-09-27T02:17:53;82.72;;;23.75;;
60076;SDS011;45950;45.208;20.374;2022-09-27T02:20:24;63.10;;;20.48;;
60076;SDS011;45950;45.208;20.374;2022-09-27T02:22:53;23.92;;;15.43;;
60076;SDS011;45950;45.208;20.374;2022-09-27T02:25:25;19.75;;;14.43;;
60076;SDS011;45950;45.208;20.374;2022-09-27T02:27:56;23.00;;;14.50;;
60076;SDS011;45950;45.208;20.374;2022-09-27T02:30:24;18.17;;;13.43;;
60076;SDS011;45950;45.208;20.374;2022-09-27T02:32:51;13.73;;;10.75;;
60076;SDS011;45950;45.208;20.374;2022-09-27T02:35:18;31.65;;;15.77;;
60076;SDS011;45950;45.208;20.374;2022-09-27T02:37:46;16.67;;;13.23;;
60076;SDS011;45950;45.208;20.374;2022-09-27T02:40:13;18.15;;;12.38;;
60076;SDS011;45950;45.208;20.374;2022-09-27T02:42:42;27.25;;;12.75;;
60076;SDS011;45950;45.208;20.374;2022-09-27T02:45:10;13.43;;;11.48;;
60076;SDS011;45950;45.208;20.374;2022-09-27T02:47:41;22.67;;;15.50;;
60076;SDS011;45950;45.208;20.374;2022-09-27T02:50:17;13.05;;;10.73;;
60076;SDS011;45950;45.208;20.374;2022-09-27T02:52:52;17.58;;;11.65;;
60076;SDS011;45950;45.208;20.374;2022-09-27T02:55:23;14.13;;;10.52;;
60076;SDS011;45950;45.208;20.374;2022-09-27T02:57:58;17.23;;;11.88;;
60076;SDS011;45950;45.208;20.374;2022-09-27T03:00:31;14.60;;;10.70;;
60076;SDS011;45950;45.208;20.374;2022-09-27T03:03:02;14.35;;;11.20;;
60076;SDS011;45950;45.208;20.374;2022-09-27T03:05:30;23.60;;;16.98;;
60076;SDS011;45950;45.208;20.374;2022-09-27T03:07:57;46.15;;;29.63;;
60076;SDS011;45950;45.208;20.374;2022-09-27T03:10:25;47.10;;;29.15;;
60076;SDS011;45950;45.208;20.374;2022-09-27T03:12:52;43.75;;;29.45;;
60076;SDS011;45950;45.208;20.374;2022-09-27T03:15:20;24.40;;;18.05;;
60076;SDS011;45950;45.208;20.374;2022-09-27T03:17:47;21.63;;;15.98;;
60076;SDS011;45950;45.208;20.374;2022-09-27T03:20:14;20.90;;;15.57;;
60076;SDS011;45950;45.208;20.374;2022-09-27T03:22:42;22.88;;;17.38;;
60076;SDS011;45950;45.208;20.374;2022-09-27T03:25:08;24.85;;;19.60;;
60076;SDS011;45950;45.208;20.374;2022-09-27T03:27:35;29.13;;;21.67;;
60076;SDS011;45950;45.208;20.374;2022-09-27T03:33:06;26.67;;;18.70;;
60076;SDS011;45950;45.208;20.374;2022-09-27T03:35:34;28.67;;;20.05;;
60076;SDS011;45950;45.208;20.374;2022-09-27T03:38:01;24.42;;;18.52;;
60076;SDS011;45950;45.208;20.374;2022-09-27T03:40:28;27.30;;;20.05;;
60076;SDS011;45950;45.208;20.374;2022-09-27T03:42:55;35.67;;;22.92;;
60076;SDS011;45950;45.208;20.374;2022-09-27T03:45:22;31.55;;;21.48;;
60076;SDS011;45950;45.208;20.374;2022-09-27T03:47:48;36.20;;;21.58;;
60076;SDS011;45950;45.208;20.374;2022-09-27T03:50:17;32.35;;;21.08;;
60076;SDS011;45950;45.208;20.374;2022-09-27T03:52:44;32.85;;;21.55;;
60076;SDS011;45950;45.208;20.374;2022-09-27T03:55:11;26.80;;;19.35;;
60076;SDS011;45950;45.208;20.374;2022-09-27T03:57:38;24.38;;;18.52;;
60076;SDS011;45950;45.208;20.374;2022-09-27T04:05:39;36.65;;;23.38;;
60076;SDS011;45950;45.208;20.374;2022-09-27T04:08:06;35.35;;;25.02;;
60076;SDS011;45950;45.208;20.374;2022-09-27T04:10:35;80.20;;;49.92;;
60076;SDS011;45950;45.208;20.374;2022-09-27T04:13:02;61.55;;;36.60;;
60076;SDS011;45950;45.208;20.374;2022-09-27T04:15:29;74.35;;;41.08;;
60076;SDS011;45950;45.208;20.374;2022-09-27T04:21:00;30.88;;;19.80;;
60076;SDS011;45950;45.208;20.374;2022-09-27T04:23:27;26.33;;;18.30;;
60076;SDS011;45950;45.208;20.374;2022-09-27T04:25:54;40.47;;;25.98;;
60076;SDS011;45950;45.208;20.374;2022-09-27T04:28:20;52.92;;;31.63;;
60076;SDS011;45950;45.208;20.374;2022-09-27T04:30:48;30.08;;;20.83;;
60076;SDS011;45950;45.208;20.374;2022-09-27T04:33:14;22.35;;;16.23;;
60076;SDS011;45950;45.208;20.374;2022-09-27T04:35:41;25.75;;;15.93;;
60076;SDS011;45950;45.208;20.374;2022-09-27T04:38:27;20.88;;;15.57;;
60076;SDS011;45950;45.208;20.374;2022-09-27T04:40:54;27.13;;;18.20;;
60076;SDS011;45950;45.208;20.374;2022-09-27T04:43:21;26.25;;;17.88;;
60076;SDS011;45950;45.208;20.374;2022-09-27T04:45:48;23.13;;;16.25;;
60076;SDS011;45950;45.208;20.374;2022-09-27T04:48:14;50.25;;;17.50;;
60076;SDS011;45950;45.208;20.374;2022-09-27T04:50:41;23.17;;;15.73;;
60076;SDS011;45950;45.208;20.374;2022-09-27T04:53:17;20.70;;;13.52;;
60076;SDS011;45950;45.208;20.374;2022-09-27T04:55:45;21.35;;;13.30;;
60076;SDS011;45950;45.208;20.374;2022-09-27T04:58:14;21.38;;;14.07;;
60076;SDS011;45950;45.208;20.374;2022-09-27T05:00:41;23.33;;;14.23;;
60076;SDS011;45950;45.208;20.374;2022-09-27T05:03:08;21.95;;;13.45;;
60076;SDS011;45950;45.208;20.374;2022-09-27T05:05:35;32.63;;;15.75;;
60076;SDS011;45950;45.208;20.374;2022-09-27T05:10:56;58.55;;;26.73;;
60076;SDS011;45950;45.208;20.374;2022-09-27T05:13:23;44.58;;;24.30;;
60076;SDS011;45950;45.208;20.374;2022-09-27T05:15:50;33.60;;;19.38;;
60076;SDS011;45950;45.208;20.374;2022-09-27T05:21:00;37.33;;;17.95;;
60076;SDS011;45950;45.208;20.374;2022-09-27T05:23:27;27.00;;;16.05;;
60076;SDS011;45950;45.208;20.374;2022-09-27T05:25:54;33.20;;;17.00;;
60076;SDS011;45950;45.208;20.374;2022-09-27T05:28:25;37.92;;;16.38;;
60076;SDS011;45950;45.208;20.374;2022-09-27T05:30:52;27.90;;;15.85;;
60076;SDS011;45950;45.208;20.374;2022-09-27T05:36:22;32.30;;;16.63;;
60076;SDS011;45950;45.208;20.374;2022-09-27T05:38:49;63.95;;;19.45;;
60076;SDS011;45950;45.208;20.374;2022-09-27T05:43:52;34.20;;;16.92;;
60076;SDS011;45950;45.208;20.374;2022-09-27T05:46:19;34.05;;;17.42;;
60076;SDS011;45950;45.208;20.374;2022-09-27T05:48:46;31.55;;;16.70;;
60076;SDS011;45950;45.208;20.374;2022-09-27T05:51:13;31.40;;;17.13;;
60076;SDS011;45950;45.208;20.374;2022-09-27T05:53:39;29.38;;;16.80;;
60076;SDS011;45950;45.208;20.374;2022-09-27T05:56:06;26.45;;;13.98;;
60076;SDS011;45950;45.208;20.374;2022-09-27T05:58:33;24.80;;;15.32;;
60076;SDS011;45950;45.208;20.374;2022-09-27T06:01:01;22.77;;;13.50;;
60076;SDS011;45950;45.208;20.374;2022-09-27T06:03:27;24.83;;;13.35;;
60076;SDS011;45950;45.208;20.374;2022-09-27T06:05:54;24.05;;;13.43;;
60076;SDS011;45950;45.208;20.374;2022-09-27T06:08:20;22.33;;;14.55;;
60076;SDS011;45950;45.208;20.374;2022-09-27T06:10:47;16.50;;;12.20;;
60076;SDS011;45950;45.208;20.374;2022-09-27T06:13:14;18.88;;;12.10;;
60076;SDS011;45950;45.208;20.374;2022-09-27T06:15:42;14.85;;;11.25;;
60076;SDS011;45950;45.208;20.374;2022-09-27T06:18:11;13.98;;;10.35;;
60076;SDS011;45950;45.208;20.374;2022-09-27T06:20:39;19.95;;;13.65;;
60076;SDS011;45950;45.208;20.374;2022-09-27T06:23:07;19.35;;;13.60;;
60076;SDS011;45950;45.208;20.374;2022-09-27T06:25:34;20.88;;;15.32;;
60076;SDS011;45950;45.208;20.374;2022-09-27T06:28:01;20.55;;;15.88;;
60076;SDS011;45950;45.208;20.374;2022-09-27T06:30:28;26.23;;;17.00;;
60076;SDS011;45950;45.208;20.374;2022-09-27T06:32:55;23.00;;;16.50;;
60076;SDS011;45950;45.208;20.374;2022-09-27T06:35:24;25.70;;;15.45;;
60076;SDS011;45950;45.208;20.374;2022-09-27T06:37:51;21.30;;;15.63;;
60076;SDS011;45950;45.208;20.374;2022-09-27T06:40:18;19.95;;;14.38;;
60076;SDS011;45950;45.208;20.374;2022-09-27T06:42:44;20.17;;;14.52;;
60076;SDS011;45950;45.208;20.374;2022-09-27T06:45:11;17.17;;;12.23;;
60076;SDS011;45950;45.208;20.374;2022-09-27T06:47:38;21.98;;;16.35;;
60076;SDS011;45950;45.208;20.374;2022-09-27T06:50:05;19.73;;;14.98;;
60076;SDS011;45950;45.208;20.374;2022-09-27T06:52:33;22.10;;;15.15;;
60076;SDS011;45950;45.208;20.374;2022-09-27T06:55:01;25.35;;;17.80;;
60076;SDS011;45950;45.208;20.374;2022-09-27T06:57:28;22.40;;;16.35;;
60076;SDS011;45950;45.208;20.374;2022-09-27T07:00:23;24.55;;;18.08;;
60076;SDS011;45950;45.208;20.374;2022-09-27T07:02:50;23.98;;;17.48;;
60076;SDS011;45950;45.208;20.374;2022-09-27T07:05:17;26.48;;;19.92;;
60076;SDS011;45950;45.208;20.374;2022-09-27T07:07:46;25.20;;;17.27;;
60076;SDS011;45950;45.208;20.374;2022-09-27T07:10:13;24.55;;;17.55;;
60076;SDS011;45950;45.208;20.374;2022-09-27T07:12:41;22.60;;;16.60;;
60076;SDS011;45950;45.208;20.374;2022-09-27T07:15:08;24.40;;;17.70;;
60076;SDS011;45950;45.208;20.374;2022-09-27T07:17:35;35.60;;;24.35;;
60076;SDS011;45950;45.208;20.374;2022-09-27T07:20:02;33.90;;;24.02;;
60076;SDS011;45950;45.208;20.374;2022-09-27T07:22:28;33.97;;;24.25;;
60076;SDS011;45950;45.208;20.374;2022-09-27T07:24:57;34.15;;;24.98;;
60076;SDS011;45950;45.208;20.374;2022-09-27T07:27:24;27.90;;;19.35;;
60076;SDS011;45950;45.208;20.374;2022-09-27T07:29:50;30.55;;;21.27;;
60076;SDS011;45950;45.208;20.374;2022-09-27T07:32:18;30.42;;;20.85;;
60076;SDS011;45950;45.208;20.374;2022-09-27T07:34:45;25.80;;;19.38;;
60076;SDS011;45950;45.208;20.374;2022-09-27T07:37:12;24.17;;;17.77;;
60076;SDS011;45950;45.208;20.374;2022-09-27T07:39:40;24.13;;;17.52;;
60076;SDS011;45950;45.208;20.374;2022-09-27T07:42:08;22.65;;;17.15;;
60076;SDS011;45950;45.208;20.374;2022-09-27T07:44:34;21.38;;;15.13;;
60076;SDS011;45950;45.208;20.374;2022-09-27T07:47:01;22.63;;;16.85;;
60076;SDS011;45950;45.208;20.374;2022-09-27T07:49:31;22.00;;;15.73;;
60076;SDS011;45950;45.208;20.374;2022-09-27T07:51:58;23.17;;;16.60;;
60076;SDS011;45950;45.208;20.374;2022-09-27T07:54:24;25.83;;;17.67;;
60076;SDS011;45950;45.208;20.374;2022-09-27T07:56:51;23.70;;;15.27;;
60076;SDS011;45950;45.208;20.374;2022-09-27T07:59:21;21.30;;;15.48;;
60076;SDS011;45950;45.208;20.374;2022-09-27T08:01:48;18.58;;;13.43;;
60076;SDS011;45950;45.208;20.374;2022-09-27T08:04:15;25.52;;;16.38;;
60076;SDS011;45950;45.208;20.374;2022-09-27T08:06:41;21.92;;;17.15;;
60076;SDS011;45950;45.208;20.374;2022-09-27T08:09:08;26.08;;;18.80;;
60076;SDS011;45950;45.208;20.374;2022-09-27T08:11:35;27.85;;;21.25;;
60076;SDS011;45950;45.208;20.374;2022-09-27T08:14:02;23.92;;;18.88;;
60076;SDS011;45950;45.208;20.374;2022-09-27T08:16:31;21.45;;;17.60;;
60076;SDS011;45950;45.208;20.374;2022-09-27T08:18:58;22.67;;;18.75;;
60076;SDS011;45950;45.208;20.374;2022-09-27T08:21:27;20.13;;;16.55;;
60076;SDS011;45950;45.208;20.374;2022-09-27T08:23:55;20.45;;;16.00;;
60076;SDS011;45950;45.208;20.374;2022-09-27T08:26:21;24.35;;;17.45;;
60076;SDS011;45950;45.208;20.374;2022-09-27T08:28:48;21.23;;;16.02;;
60076;SDS011;45950;45.208;20.374;2022-09-27T08:31:14;23.40;;;17.05;;
60076;SDS011;45950;45.208;20.374;2022-09-27T08:33:43;22.77;;;18.05;;
60076;SDS011;45950;45.208;20.374;2022-09-27T08:36:09;22.13;;;18.17;;
60076;SDS011;45950;45.208;20.374;2022-09-27T08:38:36;23.17;;;18.00;;
60076;SDS011;45950;45.208;20.374;2022-09-27T08:41:04;22.92;;;17.70;;
60076;SDS011;45950;45.208;20.374;2022-09-27T08:43:35;19.02;;;15.52;;
60076;SDS011;45950;45.208;20.374;2022-09-27T08:46:07;18.77;;;15.50;;
60076;SDS011;45950;45.208;20.374;2022-09-27T08:48:36;18.70;;;14.65;;
60076;SDS011;45950;45.208;20.374;2022-09-27T08:51:05;19.23;;;14.80;;
60076;SDS011;45950;45.208;20.374;2022-09-27T08:53:36;19.05;;;14.57;;
60076;SDS011;45950;45.208;20.374;2022-09-27T08:56:05;18.10;;;15.45;;
60076;SDS011;45950;45.208;20.374;2022-09-27T08:58:33;16.90;;;14.18;;
60076;SDS011;45950;45.208;20.374;2022-09-27T09:01:01;18.20;;;15.35;;
60076;SDS011;45950;45.208;20.374;2022-09-27T09:03:29;19.77;;;16.60;;
60076;SDS011;45950;45.208;20.374;2022-09-27T09:06:01;18.02;;;15.10;;
60076;SDS011;45950;45.208;20.374;2022-09-27T09:08:36;18.63;;;16.02;;
60076;SDS011;45950;45.208;20.374;2022-09-27T09:11:07;19.10;;;15.98;;
60076;SDS011;45950;45.208;20.374;2022-09-27T09:14:00;17.95;;;15.98;;
60076;SDS011;45950;45.208;20.374;2022-09-27T09:16:32;21.70;;;17.10;;
60076;SDS011;45950;45.208;20.374;2022-09-27T09:19:07;20.05;;;17.52;;
60076;SDS011;45950;45.208;20.374;2022-09-27T09:21:40;21.17;;;17.20;;
60076;SDS011;45950;45.208;20.374;2022-09-27T09:24:18;21.25;;;19.02;;
60076;SDS011;45950;45.208;20.374;2022-09-27T09:26:49;19.10;;;17.10;;
60076;SDS011;45950;45.208;20.374;2022-09-27T09:29:22;19.15;;;17.25;;
60076;SDS011;45950;45.208;20.374;2022-09-27T09:31:52;19.08;;;17.08;;
60076;SDS011;45950;45.208;20.374;2022-09-27T09:34:24;18.88;;;16.50;;
60076;SDS011;45950;45.208;20.374;2022-09-27T09:36:53;15.82;;;13.20;;
60076;SDS011;45950;45.208;20.374;2022-09-27T09:39:24;16.13;;;13.25;;
60076;SDS011;45950;45.208;20.374;2022-09-27T09:42:04;12.07;;;10.38;;
60076;SDS011;45950;45.208;20.374;2022-09-27T09:44:33;15.38;;;12.45;;
60076;SDS011;45950;45.208;20.374;2022-09-27T09:47:09;14.57;;;11.23;;
60076;SDS011;45950;45.208;20.374;2022-09-27T09:49:39;12.13;;;10.75;;
60076;SDS011;45950;45.208;20.374;2022-09-27T09:52:10;16.10;;;13.55;;
60076;SDS011;45950;45.208;20.374;2022-09-27T09:54:39;15.52;;;12.77;;
60076;SDS011;45950;45.208;20.374;2022-09-27T09:57:10;11.23;;;10.05;;
60076;SDS011;45950;45.208;20.374;2022-09-27T09:59:39;13.15;;;10.40;;
60076;SDS011;45950;45.208;20.374;2022-09-27T10:02:13;10.65;;;9.55;;
60076;SDS011;45950;45.208;20.374;2022-09-27T10:04:42;13.73;;;11.88;;
60076;SDS011;45950;45.208;20.374;2022-09-27T10:07:09;12.30;;;10.82;;
60076;SDS011;45950;45.208;20.374;2022-09-27T10:09:36;12.27;;;11.07;;
60076;SDS011;45950;45.208;20.374;2022-09-27T10:12:04;12.20;;;10.45;;
60076;SDS011;45950;45.208;20.374;2022-09-27T10:14:30;9.95;;;8.18;;
60076;SDS011;45950;45.208;20.374;2022-09-27T10:16:58;10.90;;;9.80;;
60076;SDS011;45950;45.208;20.374;2022-09-27T10:19:26;13.15;;;10.85;;
60076;SDS011;45950;45.208;20.374;2022-09-27T10:21:54;9.45;;;8.00;;
60076;SDS011;45950;45.208;20.374;2022-09-27T10:24:23;7.57;;;6.68;;
60076;SDS011;45950;45.208;20.374;2022-09-27T10:26:53;7.55;;;6.10;;
60076;SDS011;45950;45.208;20.374;2022-09-27T10:29:26;7.00;;;6.28;;
60076;SDS011;45950;45.208;20.374;2022-09-27T10:31:54;8.18;;;6.40;;
60076;SDS011;45950;45.208;20.374;2022-09-27T10:34:25;7.28;;;5.95;;
60076;SDS011;45950;45.208;20.374;2022-09-27T10:37:05;6.35;;;5.65;;
60076;SDS011;45950;45.208;20.374;2022-09-27T10:39:32;25.27;;;18.33;;
60076;SDS011;45950;45.208;20.374;2022-09-27T10:41:59;18.52;;;12.48;;
60076;SDS011;45950;45.208;20.374;2022-09-27T10:44:28;12.68;;;10.77;;
60076;SDS011;45950;45.208;20.374;2022-09-27T10:46:57;14.48;;;10.38;;
60076;SDS011;45950;45.208;20.374;2022-09-27T10:49:25;8.32;;;7.47;;
60076;SDS011;45950;45.208;20.374;2022-09-27T10:51:53;9.95;;;7.70;;
60076;SDS011;45950;45.208;20.374;2022-09-27T10:54:20;11.18;;;7.85;;
60076;SDS011;45950;45.208;20.374;2022-09-27T10:56:53;16.08;;;14.45;;
60076;SDS011;45950;45.208;20.374;2022-09-27T10:59:20;17.70;;;14.75;;
60076;SDS011;45950;45.208;20.374;2022-09-27T11:01:49;21.13;;;18.77;;
60076;SDS011;45950;45.208;20.374;2022-09-27T11:04:22;24.38;;;21.83;;
60076;SDS011;45950;45.208;20.374;2022-09-27T11:06:49;26.50;;;23.67;;
60076;SDS011;45950;45.208;20.374;2022-09-27T11:09:17;32.35;;;28.98;;
60076;SDS011;45950;45.208;20.374;2022-09-27T11:11:47;24.48;;;19.55;;
60076;SDS011;45950;45.208;20.374;2022-09-27T11:14:18;24.73;;;19.95;;
60076;SDS011;45950;45.208;20.374;2022-09-27T11:16:47;20.02;;;17.90;;
60076;SDS011;45950;45.208;20.374;2022-09-27T11:19:21;23.05;;;18.45;;
60076;SDS011;45950;45.208;20.374;2022-09-27T11:21:51;21.25;;;18.08;;
60076;SDS011;45950;45.208;20.374;2022-09-27T11:24:23;22.77;;;19.08;;
60076;SDS011;45950;45.208;20.374;2022-09-27T11:26:54;23.73;;;20.85;;
60076;SDS011;45950;45.208;20.374;2022-09-27T11:29:26;18.92;;;16.95;;
60076;SDS011;45950;45.208;20.374;2022-09-27T11:32:08;18.58;;;15.85;;
60076;SDS011;45950;45.208;20.374;2022-09-27T11:34:45;21.92;;;18.13;;
60076;SDS011;45950;45.208;20.374;2022-09-27T11:37:19;21.88;;;17.30;;
60076;SDS011;45950;45.208;20.374;2022-09-27T11:39:52;20.83;;;18.65;;
60076;SDS011;45950;45.208;20.374;2022-09-27T11:42:26;22.75;;;19.33;;
60076;SDS011;45950;45.208;20.374;2022-09-27T11:45:00;19.40;;;17.15;;
60076;SDS011;45950;45.208;20.374;2022-09-27T11:47:36;17.50;;;15.70;;
60076;SDS011;45950;45.208;20.374;2022-09-27T11:50:14;21.23;;;15.37;;
60076;SDS011;45950;45.208;20.374;2022-09-27T11:52:46;18.40;;;16.35;;
60076;SDS011;45950;45.208;20.374;2022-09-27T11:55:22;13.68;;;12.35;;
60076;SDS011;45950;45.208;20.374;2022-09-27T11:57:55;16.50;;;14.70;;
60076;SDS011;45950;45.208;20.374;2022-09-27T12:00:29;15.77;;;14.15;;
60076;SDS011;45950;45.208;20.374;2022-09-27T12:03:14;10.07;;;9.07;;
60076;SDS011;45950;45.208;20.374;2022-09-27T12:08:32;9.75;;;6.97;;
60076;SDS011;45950;45.208;20.374;2022-09-27T12:11:02;7.45;;;6.20;;
60076;SDS011;45950;45.208;20.374;2022-09-27T12:13:32;6.03;;;5.40;;
60076;SDS011;45950;45.208;20.374;2022-09-27T12:15:59;10.65;;;6.00;;
60076;SDS011;45950;45.208;20.374;2022-09-27T12:18:27;8.07;;;6.10;;
60076;SDS011;45950;45.208;20.374;2022-09-27T12:20:56;7.82;;;6.47;;
60076;SDS011;45950;45.208;20.374;2022-09-27T12:23:25;9.77;;;8.77;;
60076;SDS011;45950;45.208;20.374;2022-09-27T12:25:55;20.02;;;9.18;;
60076;SDS011;45950;45.208;20.374;2022-09-27T12:28:25;27.38;;;9.02;;
60076;SDS011;45950;45.208;20.374;2022-09-27T12:31:01;10.73;;;8.45;;
60076;SDS011;45950;45.208;20.374;2022-09-27T12:33:29;13.27;;;10.32;;
60076;SDS011;45950;45.208;20.374;2022-09-27T12:35:59;11.27;;;9.38;;
60076;SDS011;45950;45.208;20.374;2022-09-27T12:38:29;10.70;;;9.60;;
60076;SDS011;45950;45.208;20.374;2022-09-27T12:40:59;11.00;;;9.20;;
60076;SDS011;45950;45.208;20.374;2022-09-27T12:43:27;15.10;;;13.18;;
60076;SDS011;45950;45.208;20.374;2022-09-27T12:46:01;13.65;;;11.77;;
60076;SDS011;45950;45.208;20.374;2022-09-27T12:48:32;12.50;;;11.20;;
60076;SDS011;45950;45.208;20.374;2022-09-27T12:51:02;15.27;;;13.48;;
60076;SDS011;45950;45.208;20.374;2022-09-27T12:53:35;17.38;;;15.52;;
60076;SDS011;45950;45.208;20.374;2022-09-27T12:56:11;21.25;;;18.45;;
60076;SDS011;45950;45.208;20.374;2022-09-27T12:58:46;20.90;;;16.83;;
60076;SDS011;45950;45.208;20.374;2022-09-27T13:01:19;26.65;;;22.15;;
60076;SDS011;45950;45.208;20.374;2022-09-27T13:06:26;36.42;;;30.52;;
60076;SDS011;45950;45.208;20.374;2022-09-27T13:09:00;30.88;;;24.67;;
60076;SDS011;45950;45.208;20.374;2022-09-27T13:11:36;42.15;;;32.42;;
60076;SDS011;45950;45.208;20.374;2022-09-27T13:14:05;42.03;;;34.20;;
60076;SDS011;45950;45.208;20.374;2022-09-27T13:16:41;43.10;;;33.15;;
60076;SDS011;45950;45.208;20.374;2022-09-27T13:19:13;46.67;;;36.38;;
60076;SDS011;45950;45.208;20.374;2022-09-27T13:21:54;52.65;;;39.47;;
60076;SDS011;45950;45.208;20.374;2022-09-27T13:27:41;55.03;;;39.47;;
60076;SDS011;45950;45.208;20.374;2022-09-27T13:35:30;38.90;;;28.05;;
60076;SDS011;45950;45.208;20.374;2022-09-27T13:37:57;32.65;;;25.77;;
60076;SDS011;45950;45.208;20.374;2022-09-27T13:40:26;34.05;;;24.70;;
60076;SDS011;45950;45.208;20.374;2022-09-27T13:42:57;35.17;;;24.83;;
60076;SDS011;45950;45.208;20.374;2022-09-27T13:45:29;42.88;;;27.65;;
60076;SDS011;45950;45.208;20.374;2022-09-27T13:47:59;48.33;;;30.60;;
60076;SDS011;45950;45.208;20.374;2022-09-27T13:50:27;42.55;;;28.20;;
60076;SDS011;45950;45.208;20.374;2022-09-27T13:53:01;34.40;;;23.75;;
60076;SDS011;45950;45.208;20.374;2022-09-27T13:55:36;45.13;;;29.70;;
60076;SDS011;45950;45.208;20.374;2022-09-27T13:58:06;53.72;;;33.30;;
60076;SDS011;45950;45.208;20.374;2022-09-27T14:00:38;56.03;;;35.47;;
60076;SDS011;45950;45.208;20.374;2022-09-27T14:03:13;88.95;;;50.10;;
60076;SDS011;45950;45.208;20.374;2022-09-27T14:05:41;51.78;;;31.90;;
60076;SDS011;45950;45.208;20.374;2022-09-27T14:08:13;68.13;;;40.50;;
60076;SDS011;45950;45.208;20.374;2022-09-27T14:10:43;76.68;;;44.80;;
60076;SDS011;45950;45.208;20.374;2022-09-27T14:13:11;50.88;;;32.72;;
60076;SDS011;45950;45.208;20.374;2022-09-27T14:15:41;59.63;;;34.25;;
60076;SDS011;45950;45.208;20.374;2022-09-27T14:18:10;49.97;;;30.13;;
60076;SDS011;45950;45.208;20.374;2022-09-27T14:20:39;56.10;;;31.70;;
60076;SDS011;45950;45.208;20.374;2022-09-27T14:23:11;55.83;;;32.55;;
60076;SDS011;45950;45.208;20.374;2022-09-27T14:25:43;37.60;;;22.80;;
60076;SDS011;45950;45.208;20.374;2022-09-27T14:28:19;42.42;;;23.38;;
60076;SDS011;45950;45.208;20.374;2022-09-27T14:30:46;30.88;;;19.25;;
60076;SDS011;45950;45.208;20.374;2022-09-27T14:33:25;24.67;;;16.35;;
60076;SDS011;45950;45.208;20.374;2022-09-27T14:35:52;19.73;;;14.50;;
60076;SDS011;45950;45.208;20.374;2022-09-27T14:38:36;15.88;;;11.85;;
60076;SDS011;45950;45.208;20.374;2022-09-27T14:41:04;22.00;;;12.93;;
60076;SDS011;45950;45.208;20.374;2022-09-27T14:43:33;20.40;;;14.52;;
60076;SDS011;45950;45.208;20.374;2022-09-27T14:46:01;14.50;;;9.88;;
60076;SDS011;45950;45.208;20.374;2022-09-27T14:48:31;12.18;;;8.85;;
60076;SDS011;45950;45.208;20.374;2022-09-27T14:50:59;10.02;;;7.13;;
60076;SDS011;45950;45.208;20.374;2022-09-27T14:53:28;18.70;;;8.27;;
60076;SDS011;45950;45.208;20.374;2022-09-27T14:55:55;8.55;;;6.97;;
60076;SDS011;45950;45.208;20.374;2022-09-27T14:58:22;9.60;;;7.20;;
60076;SDS011;45950;45.208;20.374;2022-09-27T15:00:51;9.10;;;6.72;;
60076;SDS011;45950;45.208;20.374;2022-09-27T15:03:18;8.40;;;6.43;;
60076;SDS011;45950;45.208;20.374;2022-09-27T15:05:48;9.30;;;7.63;;
60076;SDS011;45950;45.208;20.374;2022-09-27T15:08:15;9.80;;;7.57;;
60076;SDS011;45950;45.208;20.374;2022-09-27T15:10:43;8.18;;;6.45;;
60076;SDS011;45950;45.208;20.374;2022-09-27T15:13:11;10.30;;;7.72;;
60076;SDS011;45950;45.208;20.374;2022-09-27T15:15:40;9.52;;;6.18;;
60076;SDS011;45950;45.208;20.374;2022-09-27T15:20:52;8.93;;;6.78;;
60076;SDS011;45950;45.208;20.374;2022-09-27T15:23:23;9.90;;;6.35;;
60076;SDS011;45950;45.208;20.374;2022-09-27T15:25:56;8.57;;;6.25;;